sensor_id;sensor_type;location;lat;lon;timestamp;P1;durP1;ratioP1;P2;durP2;ratioP2
76196;SDS011;64974;53.144;17.962;2023-11-19T00:00:34;21.48;;;8.98;;
76196;SDS011;64974;53.144;17.962;2023-11-19T00:03:03;22.30;;;10.35;;
76196;SDS011;64974;53.144;17.962;2023-11-19T00:05:29;24.48;;;10.98;;
76196;SDS011;64974;53.144;17.962;2023-11-19T00:07:56;23.13;;;10.70;;
76196;SDS011;64974;53.144;17.962;2023-11-19T00:10:22;20.52;;;9.35;;
76196;SDS011;64974;53.144;17.962;2023-11-19T00:12:49;24.58;;;10.13;;
76196;SDS011;64974;53.144;17.962;2023-11-19T00:15:16;27.48;;;10.70;;
76196;SDS011;64974;53.144;17.962;2023-11-19T00:17:44;19.42;;;9.82;;
76196;SDS011;64974;53.144;17.962;2023-11-19T00:20:13;24.58;;;10.43;;
76196;SDS011;64974;53.144;17.962;2023-11-19T00:22:39;22.52;;;9.80;;
76196;SDS011;64974;53.144;17.962;2023-11-19T00:25:07;19.83;;;8.85;;
76196;SDS011;64974;53.144;17.962;2023-11-19T00:27:34;22.77;;;10.25;;
76196;SDS011;64974;53.144;17.962;2023-11-19T00:30:00;26.38;;;10.10;;
76196;SDS011;64974;53.144;17.962;2023-11-19T00:34:54;20.05;;;9.05;;
76196;SDS011;64974;53.144;17.962;2023-11-19T00:37:22;21.70;;;8.35;;
76196;SDS011;64974;53.144;17.962;2023-11-19T00:39:48;23.20;;;9.93;;
76196;SDS011;64974;53.144;17.962;2023-11-19T00:42:17;21.95;;;9.75;;
76196;SDS011;64974;53.144;17.962;2023-11-19T00:44:43;21.10;;;9.43;;
76196;SDS011;64974;53.144;17.962;2023-11-19T00:47:10;22.73;;;9.18;;
76196;SDS011;64974;53.144;17.962;2023-11-19T00:49:37;22.50;;;9.32;;
76196;SDS011;64974;53.144;17.962;2023-11-19T00:52:04;23.45;;;10.15;;
76196;SDS011;64974;53.144;17.962;2023-11-19T00:54:32;20.95;;;9.15;;
76196;SDS011;64974;53.144;17.962;2023-11-19T00:56:59;23.30;;;9.60;;
76196;SDS011;64974;53.144;17.962;2023-11-19T00:59:28;21.00;;;9.20;;
76196;SDS011;64974;53.144;17.962;2023-11-19T01:01:55;21.90;;;9.30;;
76196;SDS011;64974;53.144;17.962;2023-11-19T01:06:49;21.67;;;8.13;;
76196;SDS011;64974;53.144;17.962;2023-11-19T01:11:43;20.42;;;8.50;;
76196;SDS011;64974;53.144;17.962;2023-11-19T01:14:10;44.50;;;15.73;;
76196;SDS011;64974;53.144;17.962;2023-11-19T01:16:36;49.92;;;18.27;;
76196;SDS011;64974;53.144;17.962;2023-11-19T01:19:03;50.58;;;18.63;;
76196;SDS011;64974;53.144;17.962;2023-11-19T01:21:30;54.92;;;18.80;;
76196;SDS011;64974;53.144;17.962;2023-11-19T01:26:23;46.08;;;17.13;;
76196;SDS011;64974;53.144;17.962;2023-11-19T01:28:51;55.55;;;17.85;;
76196;SDS011;64974;53.144;17.962;2023-11-19T01:31:18;44.88;;;17.30;;
76196;SDS011;64974;53.144;17.962;2023-11-19T01:36:12;32.75;;;13.70;;
76196;SDS011;64974;53.144;17.962;2023-11-19T01:38:39;35.70;;;13.73;;
76196;SDS011;64974;53.144;17.962;2023-11-19T01:41:06;31.63;;;12.00;;
76196;SDS011;64974;53.144;17.962;2023-11-19T01:43:36;28.38;;;11.23;;
76196;SDS011;64974;53.144;17.962;2023-11-19T01:46:05;23.80;;;10.18;;
76196;SDS011;64974;53.144;17.962;2023-11-19T01:48:35;27.88;;;11.52;;
76196;SDS011;64974;53.144;17.962;2023-11-19T01:51:04;27.20;;;9.90;;
76196;SDS011;64974;53.144;17.962;2023-11-19T01:53:31;20.83;;;8.93;;
76196;SDS011;64974;53.144;17.962;2023-11-19T01:56:00;20.52;;;9.52;;
76196;SDS011;64974;53.144;17.962;2023-11-19T01:58:27;22.20;;;9.63;;
76196;SDS011;64974;53.144;17.962;2023-11-19T02:00:55;27.35;;;10.52;;
76196;SDS011;64974;53.144;17.962;2023-11-19T02:03:23;24.15;;;10.32;;
76196;SDS011;64974;53.144;17.962;2023-11-19T02:05:51;26.13;;;11.50;;
76196;SDS011;64974;53.144;17.962;2023-11-19T02:08:18;30.35;;;11.43;;
76196;SDS011;64974;53.144;17.962;2023-11-19T02:10:45;24.40;;;10.77;;
76196;SDS011;64974;53.144;17.962;2023-11-19T02:13:11;26.77;;;10.32;;
76196;SDS011;64974;53.144;17.962;2023-11-19T02:15:39;29.88;;;10.88;;
76196;SDS011;64974;53.144;17.962;2023-11-19T02:18:19;28.50;;;10.50;;
76196;SDS011;64974;53.144;17.962;2023-11-19T02:20:48;20.50;;;9.38;;
76196;SDS011;64974;53.144;17.962;2023-11-19T02:23:15;24.88;;;9.73;;
76196;SDS011;64974;53.144;17.962;2023-11-19T02:25:42;25.67;;;10.00;;
76196;SDS011;64974;53.144;17.962;2023-11-19T02:28:10;25.73;;;9.77;;
76196;SDS011;64974;53.144;17.962;2023-11-19T02:30:38;25.65;;;10.38;;
76196;SDS011;64974;53.144;17.962;2023-11-19T02:33:04;29.73;;;11.25;;
76196;SDS011;64974;53.144;17.962;2023-11-19T02:37:58;22.73;;;9.43;;
76196;SDS011;64974;53.144;17.962;2023-11-19T02:40:25;24.67;;;9.23;;
76196;SDS011;64974;53.144;17.962;2023-11-19T02:42:52;29.00;;;10.75;;
76196;SDS011;64974;53.144;17.962;2023-11-19T02:45:21;26.98;;;10.10;;
76196;SDS011;64974;53.144;17.962;2023-11-19T02:47:48;24.67;;;10.43;;
76196;SDS011;64974;53.144;17.962;2023-11-19T02:50:15;25.95;;;11.40;;
76196;SDS011;64974;53.144;17.962;2023-11-19T02:52:41;26.92;;;11.70;;
76196;SDS011;64974;53.144;17.962;2023-11-19T02:55:08;30.25;;;12.23;;
76196;SDS011;64974;53.144;17.962;2023-11-19T02:57:37;28.52;;;12.35;;
76196;SDS011;64974;53.144;17.962;2023-11-19T03:00:06;29.25;;;11.75;;
76196;SDS011;64974;53.144;17.962;2023-11-19T03:02:39;31.75;;;11.48;;
76196;SDS011;64974;53.144;17.962;2023-11-19T03:05:10;26.17;;;11.57;;
76196;SDS011;64974;53.144;17.962;2023-11-19T03:07:36;31.52;;;13.02;;
76196;SDS011;64974;53.144;17.962;2023-11-19T03:12:30;24.63;;;10.13;;
76196;SDS011;64974;53.144;17.962;2023-11-19T03:14:58;28.45;;;12.05;;
76196;SDS011;64974;53.144;17.962;2023-11-19T03:17:24;27.80;;;11.48;;
76196;SDS011;64974;53.144;17.962;2023-11-19T03:19:53;29.92;;;12.50;;
76196;SDS011;64974;53.144;17.962;2023-11-19T03:22:19;32.58;;;12.68;;
76196;SDS011;64974;53.144;17.962;2023-11-19T03:24:46;29.63;;;10.85;;
76196;SDS011;64974;53.144;17.962;2023-11-19T03:27:12;32.08;;;13.15;;
76196;SDS011;64974;53.144;17.962;2023-11-19T03:29:39;26.83;;;11.00;;
76196;SDS011;64974;53.144;17.962;2023-11-19T03:32:05;31.58;;;12.48;;
76196;SDS011;64974;53.144;17.962;2023-11-19T03:34:32;29.60;;;11.45;;
76196;SDS011;64974;53.144;17.962;2023-11-19T03:37:00;24.67;;;10.85;;
76196;SDS011;64974;53.144;17.962;2023-11-19T03:39:26;24.08;;;11.43;;
76196;SDS011;64974;53.144;17.962;2023-11-19T03:41:54;26.98;;;11.93;;
76196;SDS011;64974;53.144;17.962;2023-11-19T03:44:21;27.50;;;11.45;;
76196;SDS011;64974;53.144;17.962;2023-11-19T03:46:47;26.00;;;10.85;;
76196;SDS011;64974;53.144;17.962;2023-11-19T03:49:16;26.05;;;10.65;;
76196;SDS011;64974;53.144;17.962;2023-11-19T03:51:43;28.23;;;10.20;;
76196;SDS011;64974;53.144;17.962;2023-11-19T03:56:37;22.95;;;8.50;;
76196;SDS011;64974;53.144;17.962;2023-11-19T03:59:03;24.80;;;10.15;;
76196;SDS011;64974;53.144;17.962;2023-11-19T04:01:30;25.83;;;10.52;;
76196;SDS011;64974;53.144;17.962;2023-11-19T04:03:57;26.48;;;10.68;;
76196;SDS011;64974;53.144;17.962;2023-11-19T04:06:25;23.98;;;9.88;;
76196;SDS011;64974;53.144;17.962;2023-11-19T04:08:52;23.63;;;9.75;;
76196;SDS011;64974;53.144;17.962;2023-11-19T04:11:20;23.55;;;8.90;;
76196;SDS011;64974;53.144;17.962;2023-11-19T04:13:46;21.88;;;9.38;;
76196;SDS011;64974;53.144;17.962;2023-11-19T04:16:13;24.40;;;9.77;;
76196;SDS011;64974;53.144;17.962;2023-11-19T04:18:40;25.20;;;9.73;;
76196;SDS011;64974;53.144;17.962;2023-11-19T04:21:06;23.58;;;10.07;;
76196;SDS011;64974;53.144;17.962;2023-11-19T04:26:01;22.00;;;8.32;;
76196;SDS011;64974;53.144;17.962;2023-11-19T04:28:30;24.33;;;10.23;;
76196;SDS011;64974;53.144;17.962;2023-11-19T04:30:57;22.25;;;8.32;;
76196;SDS011;64974;53.144;17.962;2023-11-19T04:33:23;23.27;;;9.20;;
76196;SDS011;64974;53.144;17.962;2023-11-19T04:35:50;26.25;;;10.75;;
76196;SDS011;64974;53.144;17.962;2023-11-19T04:38:16;20.67;;;9.38;;
76196;SDS011;64974;53.144;17.962;2023-11-19T04:40:43;24.35;;;9.55;;
76196;SDS011;64974;53.144;17.962;2023-11-19T04:43:09;20.75;;;9.40;;
76196;SDS011;64974;53.144;17.962;2023-11-19T04:45:37;24.98;;;9.85;;
76196;SDS011;64974;53.144;17.962;2023-11-19T04:48:04;22.30;;;10.13;;
76196;SDS011;64974;53.144;17.962;2023-11-19T04:50:31;21.23;;;9.13;;
76196;SDS011;64974;53.144;17.962;2023-11-19T04:52:57;24.67;;;9.65;;
76196;SDS011;64974;53.144;17.962;2023-11-19T04:55:24;27.20;;;10.32;;
76196;SDS011;64974;53.144;17.962;2023-11-19T04:57:53;19.88;;;9.40;;
76196;SDS011;64974;53.144;17.962;2023-11-19T05:00:20;23.17;;;8.98;;
76196;SDS011;64974;53.144;17.962;2023-11-19T05:02:48;18.00;;;8.30;;
76196;SDS011;64974;53.144;17.962;2023-11-19T05:05:15;22.63;;;10.43;;
76196;SDS011;64974;53.144;17.962;2023-11-19T05:07:41;19.52;;;9.43;;
76196;SDS011;64974;53.144;17.962;2023-11-19T05:10:08;21.10;;;9.80;;
76196;SDS011;64974;53.144;17.962;2023-11-19T05:12:35;22.75;;;9.77;;
76196;SDS011;64974;53.144;17.962;2023-11-19T05:15:01;23.42;;;10.95;;
76196;SDS011;64974;53.144;17.962;2023-11-19T05:19:56;18.33;;;8.57;;
76196;SDS011;64974;53.144;17.962;2023-11-19T05:22:22;23.10;;;10.25;;
76196;SDS011;64974;53.144;17.962;2023-11-19T05:24:49;21.45;;;10.02;;
76196;SDS011;64974;53.144;17.962;2023-11-19T05:27:15;23.95;;;10.52;;
76196;SDS011;64974;53.144;17.962;2023-11-19T05:29:42;24.05;;;9.82;;
76196;SDS011;64974;53.144;17.962;2023-11-19T05:32:08;22.83;;;9.63;;
76196;SDS011;64974;53.144;17.962;2023-11-19T05:34:35;21.02;;;9.63;;
76196;SDS011;64974;53.144;17.962;2023-11-19T05:37:03;26.83;;;11.07;;
76196;SDS011;64974;53.144;17.962;2023-11-19T05:39:30;24.63;;;10.55;;
76196;SDS011;64974;53.144;17.962;2023-11-19T05:41:57;24.17;;;10.30;;
76196;SDS011;64974;53.144;17.962;2023-11-19T05:44:24;20.15;;;9.80;;
76196;SDS011;64974;53.144;17.962;2023-11-19T05:46:50;20.25;;;9.07;;
76196;SDS011;64974;53.144;17.962;2023-11-19T05:49:17;23.70;;;9.95;;
76196;SDS011;64974;53.144;17.962;2023-11-19T05:51:43;20.55;;;9.02;;
76196;SDS011;64974;53.144;17.962;2023-11-19T05:54:12;23.70;;;9.55;;
76196;SDS011;64974;53.144;17.962;2023-11-19T05:56:39;22.60;;;8.35;;
76196;SDS011;64974;53.144;17.962;2023-11-19T05:59:05;22.42;;;9.13;;
76196;SDS011;64974;53.144;17.962;2023-11-19T06:01:39;17.77;;;9.30;;
76196;SDS011;64974;53.144;17.962;2023-11-19T06:04:07;19.33;;;8.52;;
76196;SDS011;64974;53.144;17.962;2023-11-19T06:06:33;18.60;;;8.65;;
76196;SDS011;64974;53.144;17.962;2023-11-19T06:09:00;18.13;;;8.43;;
76196;SDS011;64974;53.144;17.962;2023-11-19T06:11:32;22.48;;;8.77;;
76196;SDS011;64974;53.144;17.962;2023-11-19T06:14:00;15.52;;;7.45;;
76196;SDS011;64974;53.144;17.962;2023-11-19T06:18:54;15.50;;;6.57;;
76196;SDS011;64974;53.144;17.962;2023-11-19T06:23:47;18.60;;;7.32;;
76196;SDS011;64974;53.144;17.962;2023-11-19T06:26:14;21.02;;;8.07;;
76196;SDS011;64974;53.144;17.962;2023-11-19T06:28:42;17.25;;;7.40;;
76196;SDS011;64974;53.144;17.962;2023-11-19T06:31:08;21.70;;;8.65;;
76196;SDS011;64974;53.144;17.962;2023-11-19T06:33:38;19.45;;;8.30;;
76196;SDS011;64974;53.144;17.962;2023-11-19T06:36:07;23.10;;;9.40;;
76196;SDS011;64974;53.144;17.962;2023-11-19T06:38:34;27.30;;;12.18;;
76196;SDS011;64974;53.144;17.962;2023-11-19T06:41:07;26.23;;;10.75;;
76196;SDS011;64974;53.144;17.962;2023-11-19T06:43:34;31.52;;;16.20;;
76196;SDS011;64974;53.144;17.962;2023-11-19T06:46:17;52.50;;;23.52;;
76196;SDS011;64974;53.144;17.962;2023-11-19T06:48:44;42.53;;;19.95;;
76196;SDS011;64974;53.144;17.962;2023-11-19T06:51:12;25.92;;;12.13;;
76196;SDS011;64974;53.144;17.962;2023-11-19T06:53:40;25.27;;;11.88;;
76196;SDS011;64974;53.144;17.962;2023-11-19T06:56:17;25.88;;;13.90;;
76196;SDS011;64974;53.144;17.962;2023-11-19T06:58:56;26.80;;;13.70;;
76196;SDS011;64974;53.144;17.962;2023-11-19T07:03:50;17.80;;;7.25;;
76196;SDS011;64974;53.144;17.962;2023-11-19T07:08:44;19.40;;;7.90;;
76196;SDS011;64974;53.144;17.962;2023-11-19T07:11:11;19.33;;;7.90;;
76196;SDS011;64974;53.144;17.962;2023-11-19T07:13:41;18.40;;;7.35;;
76196;SDS011;64974;53.144;17.962;2023-11-19T07:16:11;15.65;;;7.68;;
76196;SDS011;64974;53.144;17.962;2023-11-19T07:18:40;15.35;;;7.13;;
76196;SDS011;64974;53.144;17.962;2023-11-19T07:21:08;15.50;;;7.15;;
76196;SDS011;64974;53.144;17.962;2023-11-19T07:23:36;18.58;;;7.95;;
76196;SDS011;64974;53.144;17.962;2023-11-19T07:26:06;20.58;;;7.80;;
76196;SDS011;64974;53.144;17.962;2023-11-19T07:28:40;15.13;;;7.53;;
76196;SDS011;64974;53.144;17.962;2023-11-19T07:31:09;15.25;;;6.32;;
76196;SDS011;64974;53.144;17.962;2023-11-19T07:33:36;17.40;;;6.88;;
76196;SDS011;64974;53.144;17.962;2023-11-19T07:36:15;14.57;;;6.45;;
76196;SDS011;64974;53.144;17.962;2023-11-19T07:38:42;19.50;;;6.97;;
76196;SDS011;64974;53.144;17.962;2023-11-19T07:41:10;14.93;;;6.00;;
76196;SDS011;64974;53.144;17.962;2023-11-19T07:43:38;12.73;;;5.78;;
76196;SDS011;64974;53.144;17.962;2023-11-19T07:48:51;15.48;;;6.28;;
76196;SDS011;64974;53.144;17.962;2023-11-19T07:51:29;15.30;;;5.88;;
76196;SDS011;64974;53.144;17.962;2023-11-19T07:53:56;16.15;;;6.55;;
76196;SDS011;64974;53.144;17.962;2023-11-19T07:56:23;15.95;;;6.43;;
76196;SDS011;64974;53.144;17.962;2023-11-19T07:58:53;12.93;;;6.47;;
76196;SDS011;64974;53.144;17.962;2023-11-19T08:01:20;12.18;;;5.47;;
76196;SDS011;64974;53.144;17.962;2023-11-19T08:03:50;15.90;;;6.63;;
76196;SDS011;64974;53.144;17.962;2023-11-19T08:06:18;16.05;;;7.03;;
76196;SDS011;64974;53.144;17.962;2023-11-19T08:08:47;14.77;;;7.18;;
76196;SDS011;64974;53.144;17.962;2023-11-19T08:11:17;17.90;;;7.20;;
76196;SDS011;64974;53.144;17.962;2023-11-19T08:13:44;15.77;;;6.88;;
76196;SDS011;64974;53.144;17.962;2023-11-19T08:16:12;17.35;;;7.40;;
76196;SDS011;64974;53.144;17.962;2023-11-19T08:18:41;15.80;;;7.32;;
76196;SDS011;64974;53.144;17.962;2023-11-19T08:21:08;20.27;;;7.63;;
76196;SDS011;64974;53.144;17.962;2023-11-19T08:23:37;22.15;;;7.93;;
76196;SDS011;64974;53.144;17.962;2023-11-19T08:26:15;20.27;;;8.35;;
76196;SDS011;64974;53.144;17.962;2023-11-19T08:28:52;17.40;;;8.32;;
76196;SDS011;64974;53.144;17.962;2023-11-19T08:31:33;21.45;;;7.70;;
76196;SDS011;64974;53.144;17.962;2023-11-19T08:34:04;15.55;;;7.38;;
76196;SDS011;64974;53.144;17.962;2023-11-19T08:36:33;16.33;;;6.93;;
76196;SDS011;64974;53.144;17.962;2023-11-19T08:39:04;16.42;;;8.05;;
76196;SDS011;64974;53.144;17.962;2023-11-19T08:41:36;15.82;;;6.65;;
76196;SDS011;64974;53.144;17.962;2023-11-19T08:44:05;18.52;;;7.55;;
76196;SDS011;64974;53.144;17.962;2023-11-19T08:46:32;17.08;;;7.20;;
76196;SDS011;64974;53.144;17.962;2023-11-19T08:49:08;15.27;;;6.72;;
76196;SDS011;64974;53.144;17.962;2023-11-19T08:54:11;17.30;;;7.28;;
76196;SDS011;64974;53.144;17.962;2023-11-19T08:56:41;17.95;;;8.00;;
76196;SDS011;64974;53.144;17.962;2023-11-19T08:59:08;17.23;;;7.18;;
76196;SDS011;64974;53.144;17.962;2023-11-19T09:01:37;19.40;;;7.97;;
76196;SDS011;64974;53.144;17.962;2023-11-19T09:04:07;23.90;;;9.65;;
76196;SDS011;64974;53.144;17.962;2023-11-19T09:06:36;21.25;;;10.13;;
76196;SDS011;64974;53.144;17.962;2023-11-19T09:09:03;30.90;;;12.27;;
76196;SDS011;64974;53.144;17.962;2023-11-19T09:11:30;28.73;;;11.10;;
76196;SDS011;64974;53.144;17.962;2023-11-19T09:17:16;26.40;;;10.23;;
76196;SDS011;64974;53.144;17.962;2023-11-19T09:19:43;22.05;;;10.23;;
76196;SDS011;64974;53.144;17.962;2023-11-19T09:32:10;18.95;;;8.13;;
76196;SDS011;64974;53.144;17.962;2023-11-19T09:34:41;25.50;;;10.05;;
76196;SDS011;64974;53.144;17.962;2023-11-19T09:58:23;20.65;;;9.02;;
76196;SDS011;64974;53.144;17.962;2023-11-19T10:00:50;23.92;;;10.75;;
76196;SDS011;64974;53.144;17.962;2023-11-19T10:06:09;26.42;;;11.07;;
76196;SDS011;64974;53.144;17.962;2023-11-19T10:08:50;24.80;;;10.35;;
76196;SDS011;64974;53.144;17.962;2023-11-19T10:11:16;21.88;;;9.18;;
76196;SDS011;64974;53.144;17.962;2023-11-19T10:13:44;21.90;;;9.20;;
76196;SDS011;64974;53.144;17.962;2023-11-19T10:16:13;24.65;;;9.88;;
76196;SDS011;64974;53.144;17.962;2023-11-19T10:18:59;25.77;;;10.18;;
76196;SDS011;64974;53.144;17.962;2023-11-19T10:21:30;25.25;;;9.82;;
76196;SDS011;64974;53.144;17.962;2023-11-19T10:24:26;19.05;;;9.60;;
76196;SDS011;64974;53.144;17.962;2023-11-19T10:27:15;22.38;;;10.13;;
76196;SDS011;64974;53.144;17.962;2023-11-19T10:29:45;23.58;;;10.65;;
76196;SDS011;64974;53.144;17.962;2023-11-19T10:32:12;26.40;;;10.95;;
76196;SDS011;64974;53.144;17.962;2023-11-19T10:34:41;27.45;;;10.73;;
76196;SDS011;64974;53.144;17.962;2023-11-19T10:37:13;26.73;;;9.95;;
76196;SDS011;64974;53.144;17.962;2023-11-19T10:39:54;22.15;;;8.93;;
76196;SDS011;64974;53.144;17.962;2023-11-19T10:42:21;25.85;;;9.98;;
76196;SDS011;64974;53.144;17.962;2023-11-19T10:44:49;25.98;;;10.95;;
76196;SDS011;64974;53.144;17.962;2023-11-19T10:47:15;25.63;;;11.50;;
76196;SDS011;64974;53.144;17.962;2023-11-19T10:49:45;25.65;;;11.50;;
76196;SDS011;64974;53.144;17.962;2023-11-19T10:52:12;24.83;;;10.35;;
76196;SDS011;64974;53.144;17.962;2023-11-19T10:54:51;22.85;;;9.75;;
76196;SDS011;64974;53.144;17.962;2023-11-19T10:57:34;25.73;;;10.57;;
76196;SDS011;64974;53.144;17.962;2023-11-19T11:00:08;25.90;;;11.50;;
76196;SDS011;64974;53.144;17.962;2023-11-19T11:06:32;24.95;;;10.07;;
76196;SDS011;64974;53.144;17.962;2023-11-19T11:09:26;26.98;;;10.20;;
76196;SDS011;64974;53.144;17.962;2023-11-19T11:11:54;24.92;;;10.10;;
76196;SDS011;64974;53.144;17.962;2023-11-19T11:14:33;28.10;;;12.48;;
76196;SDS011;64974;53.144;17.962;2023-11-19T11:17:03;25.98;;;11.38;;
76196;SDS011;64974;53.144;17.962;2023-11-19T11:19:34;32.40;;;12.00;;
76196;SDS011;64974;53.144;17.962;2023-11-19T11:22:41;26.83;;;11.15;;
76196;SDS011;64974;53.144;17.962;2023-11-19T11:25:18;28.92;;;10.75;;
76196;SDS011;64974;53.144;17.962;2023-11-19T11:27:54;23.85;;;11.05;;
76196;SDS011;64974;53.144;17.962;2023-11-19T11:33:06;26.42;;;9.60;;
76196;SDS011;64974;53.144;17.962;2023-11-19T11:35:49;26.83;;;10.73;;
76196;SDS011;64974;53.144;17.962;2023-11-19T11:38:22;22.95;;;10.13;;
76196;SDS011;64974;53.144;17.962;2023-11-19T11:43:44;25.33;;;10.75;;
76196;SDS011;64974;53.144;17.962;2023-11-19T11:49:14;30.83;;;12.80;;
76196;SDS011;64974;53.144;17.962;2023-11-19T11:51:57;26.88;;;11.02;;
76196;SDS011;64974;53.144;17.962;2023-11-19T11:54:28;27.85;;;12.30;;
76196;SDS011;64974;53.144;17.962;2023-11-19T11:59:56;30.70;;;11.13;;
76196;SDS011;64974;53.144;17.962;2023-11-19T12:02:22;28.67;;;11.90;;
76196;SDS011;64974;53.144;17.962;2023-11-19T12:04:52;30.98;;;11.85;;
76196;SDS011;64974;53.144;17.962;2023-11-19T12:07:20;30.15;;;13.07;;
76196;SDS011;64974;53.144;17.962;2023-11-19T12:09:48;33.15;;;12.63;;
76196;SDS011;64974;53.144;17.962;2023-11-19T12:12:18;36.20;;;14.38;;
76196;SDS011;64974;53.144;17.962;2023-11-19T12:15:03;40.15;;;13.40;;
76196;SDS011;64974;53.144;17.962;2023-11-19T12:17:40;35.65;;;13.55;;
76196;SDS011;64974;53.144;17.962;2023-11-19T12:20:25;33.28;;;12.10;;
76196;SDS011;64974;53.144;17.962;2023-11-19T12:22:56;32.20;;;12.93;;
76196;SDS011;64974;53.144;17.962;2023-11-19T12:25:50;33.55;;;12.13;;
76196;SDS011;64974;53.144;17.962;2023-11-19T12:28:34;37.83;;;14.77;;
76196;SDS011;64974;53.144;17.962;2023-11-19T12:31:08;40.30;;;14.77;;
76196;SDS011;64974;53.144;17.962;2023-11-19T12:33:47;40.65;;;15.45;;
76196;SDS011;64974;53.144;17.962;2023-11-19T12:36:28;34.70;;;13.05;;
76196;SDS011;64974;53.144;17.962;2023-11-19T12:39:07;30.52;;;13.10;;
76196;SDS011;64974;53.144;17.962;2023-11-19T12:41:50;32.47;;;12.48;;
76196;SDS011;64974;53.144;17.962;2023-11-19T12:44:19;31.50;;;12.20;;
76196;SDS011;64974;53.144;17.962;2023-11-19T12:50:12;27.17;;;10.57;;
76196;SDS011;64974;53.144;17.962;2023-11-19T12:52:54;23.60;;;10.88;;
76196;SDS011;64974;53.144;17.962;2023-11-19T12:56:07;27.77;;;10.90;;
76196;SDS011;64974;53.144;17.962;2023-11-19T12:58:35;24.17;;;10.95;;
76196;SDS011;64974;53.144;17.962;2023-11-19T13:01:04;29.95;;;11.20;;
76196;SDS011;64974;53.144;17.962;2023-11-19T13:03:32;27.88;;;11.95;;
76196;SDS011;64974;53.144;17.962;2023-11-19T13:06:03;28.25;;;12.30;;
76196;SDS011;64974;53.144;17.962;2023-11-19T13:08:41;27.58;;;11.18;;
76196;SDS011;64974;53.144;17.962;2023-11-19T13:11:12;26.77;;;11.85;;
76196;SDS011;64974;53.144;17.962;2023-11-19T13:17:42;72.03;;;23.00;;
76196;SDS011;64974;53.144;17.962;2023-11-19T13:20:16;55.35;;;19.80;;
76196;SDS011;64974;53.144;17.962;2023-11-19T13:22:57;28.13;;;11.45;;
76196;SDS011;64974;53.144;17.962;2023-11-19T13:25:29;29.38;;;11.95;;
76196;SDS011;64974;53.144;17.962;2023-11-19T13:28:04;29.35;;;11.77;;
76196;SDS011;64974;53.144;17.962;2023-11-19T13:30:32;30.25;;;12.02;;
76196;SDS011;64974;53.144;17.962;2023-11-19T13:32:59;32.17;;;16.50;;
76196;SDS011;64974;53.144;17.962;2023-11-19T13:35:28;45.42;;;19.08;;
76196;SDS011;64974;53.144;17.962;2023-11-19T13:37:58;36.15;;;17.70;;
76196;SDS011;64974;53.144;17.962;2023-11-19T13:40:29;31.88;;;14.43;;
76196;SDS011;64974;53.144;17.962;2023-11-19T13:42:56;24.38;;;12.18;;
76196;SDS011;64974;53.144;17.962;2023-11-19T13:45:37;32.65;;;13.55;;
76196;SDS011;64974;53.144;17.962;2023-11-19T13:48:06;28.60;;;11.75;;
76196;SDS011;64974;53.144;17.962;2023-11-19T13:50:32;31.67;;;12.93;;
76196;SDS011;64974;53.144;17.962;2023-11-19T13:52:59;27.50;;;11.98;;
76196;SDS011;64974;53.144;17.962;2023-11-19T13:55:31;25.67;;;10.98;;
76196;SDS011;64974;53.144;17.962;2023-11-19T13:57:57;27.33;;;11.88;;
76196;SDS011;64974;53.144;17.962;2023-11-19T14:00:26;28.52;;;11.88;;
76196;SDS011;64974;53.144;17.962;2023-11-19T14:02:55;26.48;;;10.80;;
76196;SDS011;64974;53.144;17.962;2023-11-19T14:05:25;31.60;;;11.77;;
76196;SDS011;64974;53.144;17.962;2023-11-19T14:07:54;22.65;;;9.88;;
76196;SDS011;64974;53.144;17.962;2023-11-19T14:10:22;23.00;;;9.63;;
76196;SDS011;64974;53.144;17.962;2023-11-19T14:12:53;26.27;;;10.48;;
76196;SDS011;64974;53.144;17.962;2023-11-19T14:15:26;25.45;;;9.93;;
76196;SDS011;64974;53.144;17.962;2023-11-19T14:17:53;23.85;;;10.43;;
76196;SDS011;64974;53.144;17.962;2023-11-19T14:20:23;28.23;;;10.82;;
76196;SDS011;64974;53.144;17.962;2023-11-19T14:22:51;30.15;;;11.82;;
76196;SDS011;64974;53.144;17.962;2023-11-19T14:25:18;27.63;;;10.48;;
76196;SDS011;64974;53.144;17.962;2023-11-19T14:27:50;25.55;;;9.88;;
76196;SDS011;64974;53.144;17.962;2023-11-19T14:30:17;22.38;;;9.70;;
76196;SDS011;64974;53.144;17.962;2023-11-19T14:32:45;24.92;;;10.18;;
76196;SDS011;64974;53.144;17.962;2023-11-19T14:35:14;20.98;;;9.15;;
76196;SDS011;64974;53.144;17.962;2023-11-19T14:37:41;23.27;;;9.48;;
76196;SDS011;64974;53.144;17.962;2023-11-19T14:40:09;24.45;;;10.52;;
76196;SDS011;64974;53.144;17.962;2023-11-19T14:42:37;26.95;;;11.75;;
76196;SDS011;64974;53.144;17.962;2023-11-19T14:45:08;26.25;;;9.90;;
76196;SDS011;64974;53.144;17.962;2023-11-19T14:47:37;27.58;;;11.02;;
76196;SDS011;64974;53.144;17.962;2023-11-19T14:50:05;26.98;;;10.73;;
76196;SDS011;64974;53.144;17.962;2023-11-19T14:52:34;24.52;;;10.63;;
76196;SDS011;64974;53.144;17.962;2023-11-19T14:55:00;27.65;;;10.43;;
76196;SDS011;64974;53.144;17.962;2023-11-19T14:57:27;27.83;;;10.75;;
76196;SDS011;64974;53.144;17.962;2023-11-19T15:02:21;26.85;;;10.73;;
76196;SDS011;64974;53.144;17.962;2023-11-19T15:04:49;33.95;;;11.77;;
76196;SDS011;64974;53.144;17.962;2023-11-19T15:07:17;28.33;;;10.93;;
76196;SDS011;64974;53.144;17.962;2023-11-19T15:09:46;26.08;;;9.73;;
76196;SDS011;64974;53.144;17.962;2023-11-19T15:12:13;21.88;;;9.35;;
76196;SDS011;64974;53.144;17.962;2023-11-19T15:14:40;24.67;;;10.13;;
76196;SDS011;64974;53.144;17.962;2023-11-19T15:19:35;19.58;;;7.45;;
76196;SDS011;64974;53.144;17.962;2023-11-19T15:22:01;19.85;;;8.73;;
76196;SDS011;64974;53.144;17.962;2023-11-19T15:24:30;22.60;;;8.98;;
76196;SDS011;64974;53.144;17.962;2023-11-19T15:26:57;19.58;;;9.70;;
76196;SDS011;64974;53.144;17.962;2023-11-19T15:29:25;19.25;;;9.57;;
76196;SDS011;64974;53.144;17.962;2023-11-19T15:31:53;24.25;;;11.88;;
76196;SDS011;64974;53.144;17.962;2023-11-19T15:34:20;28.88;;;13.90;;
76196;SDS011;64974;53.144;17.962;2023-11-19T15:36:50;30.30;;;13.40;;
76196;SDS011;64974;53.144;17.962;2023-11-19T15:39:17;30.42;;;12.27;;
76196;SDS011;64974;53.144;17.962;2023-11-19T15:41:45;30.52;;;13.18;;
76196;SDS011;64974;53.144;17.962;2023-11-19T15:44:13;24.13;;;10.00;;
76196;SDS011;64974;53.144;17.962;2023-11-19T15:46:40;23.80;;;11.05;;
76196;SDS011;64974;53.144;17.962;2023-11-19T15:49:08;20.45;;;9.07;;
76196;SDS011;64974;53.144;17.962;2023-11-19T15:51:36;22.17;;;9.20;;
76196;SDS011;64974;53.144;17.962;2023-11-19T15:54:07;19.55;;;10.70;;
76196;SDS011;64974;53.144;17.962;2023-11-19T15:56:35;20.05;;;9.65;;
76196;SDS011;64974;53.144;17.962;2023-11-19T15:59:03;19.88;;;8.75;;
76196;SDS011;64974;53.144;17.962;2023-11-19T16:01:31;20.02;;;8.18;;
76196;SDS011;64974;53.144;17.962;2023-11-19T16:03:58;16.20;;;7.13;;
76196;SDS011;64974;53.144;17.962;2023-11-19T16:06:27;19.10;;;8.30;;
76196;SDS011;64974;53.144;17.962;2023-11-19T16:08:57;20.65;;;8.45;;
76196;SDS011;64974;53.144;17.962;2023-11-19T16:11:32;18.08;;;7.95;;